createdAt,value
2018-04-17T00:00:46.825Z,6.87
2018-04-17T00:03:14.051Z,7.10
2018-04-17T00:05:41.265Z,7.60
2018-04-17T00:08:08.489Z,7.50
2018-04-17T00:10:35.467Z,7.17
2018-04-17T00:13:02.935Z,7.65
2018-04-17T00:15:29.942Z,7.80
2018-04-17T00:17:57.130Z,7.40
2018-04-17T00:20:24.345Z,8.53
2018-04-17T00:22:51.533Z,9.10
2018-04-17T00:25:19.667Z,8.30
2018-04-17T00:27:47.155Z,9.30
2018-04-17T00:30:14.359Z,10.10
2018-04-17T00:32:41.846Z,9.02
2018-04-17T00:35:09.376Z,8.80
2018-04-17T00:37:36.563Z,9.70
2018-04-17T00:40:03.509Z,8.60
2018-04-17T00:42:30.727Z,8.20
2018-04-17T00:44:58.201Z,7.93
2018-04-17T00:47:25.415Z,7.87
2018-04-17T00:49:52.900Z,9.07
2018-04-17T00:52:20.074Z,7.27
2018-04-17T00:54:47.044Z,8.30
2018-04-17T00:57:14.533Z,7.82
2018-04-17T00:59:41.722Z,8.67
2018-04-17T01:02:08.898Z,8.20
2018-04-17T01:04:36.381Z,8.27
2018-04-17T01:07:04.189Z,8.43
2018-04-17T01:09:31.385Z,8.30
2018-04-17T01:11:58.586Z,7.77
2018-04-17T01:14:26.061Z,7.57
2018-04-17T01:16:53.538Z,8.45
2018-04-17T01:19:20.714Z,8.10
2018-04-17T01:21:47.922Z,7.37
2018-04-17T01:24:15.154Z,7.18
2018-04-17T01:26:42.622Z,6.70
2018-04-17T01:29:09.822Z,7.20
2018-04-17T01:31:37.109Z,7.40
2018-04-17T01:34:04.597Z,6.30
2018-04-17T01:36:31.778Z,6.17
2018-04-17T01:38:58.977Z,6.10
2018-04-17T01:41:26.166Z,6.10
2018-04-17T01:43:53.673Z,6.22
2018-04-17T01:46:21.154Z,5.55
2018-04-17T01:48:48.667Z,5.85
2018-04-17T01:51:16.131Z,4.82
2018-04-17T01:53:43.309Z,5.03
2018-04-17T01:56:10.524Z,4.77
2018-04-17T01:58:38.168Z,5.47
2018-04-17T02:01:05.566Z,5.13
2018-04-17T02:03:32.766Z,5.37
2018-04-17T02:05:59.974Z,5.37
2018-04-17T02:08:27.164Z,4.93
2018-04-17T02:10:54.647Z,5.55
2018-04-17T02:13:21.849Z,5.37
2018-04-17T02:15:49.027Z,5.10
2018-04-17T02:18:16.222Z,5.13
2018-04-17T02:20:43.422Z,5.43
2018-04-17T02:23:10.631Z,5.30
2018-04-17T02:25:38.095Z,5.28
2018-04-17T02:28:05.290Z,4.60
2018-04-17T02:30:32.470Z,3.77
2018-04-17T02:32:59.738Z,4.23
2018-04-17T02:35:26.965Z,3.93
2018-04-17T02:37:54.149Z,4.97
2018-04-17T02:40:21.346Z,4.80
2018-04-17T02:42:48.572Z,4.30
2018-04-17T02:45:15.758Z,4.33
2018-04-17T02:47:43.266Z,4.70
2018-04-17T02:50:10.463Z,4.47
2018-04-17T02:52:37.694Z,4.87
2018-04-17T02:55:05.169Z,4.05
2018-04-17T02:57:32.646Z,3.92
2018-04-17T03:00:00.136Z,4.40
2018-04-17T03:02:27.652Z,4.10
2018-04-17T03:04:55.129Z,4.40
2018-04-17T03:07:22.593Z,4.75
2018-04-17T03:09:50.076Z,3.60
2018-04-17T03:12:17.549Z,4.10
2018-04-17T03:14:45.048Z,3.60
2018-04-17T03:17:12.516Z,3.62
2018-04-17T03:19:40.029Z,3.92
2018-04-17T03:22:07.525Z,3.97
2018-04-17T03:24:35.014Z,5.28
2018-04-17T03:27:02.549Z,3.55
2018-04-17T03:29:30.024Z,3.85
2018-04-17T03:31:57.509Z,4.00
2018-04-17T03:34:24.771Z,3.70
2018-04-17T03:36:52.241Z,4.28
2018-04-17T03:39:19.715Z,4.32
2018-04-17T03:41:48.015Z,3.75
2018-04-17T03:44:15.478Z,3.92
2018-04-17T03:46:42.949Z,3.20
2018-04-17T03:49:10.432Z,3.30
2018-04-17T03:51:37.889Z,3.53
2018-04-17T03:54:05.370Z,3.30
2018-04-17T03:56:32.843Z,3.20
2018-04-17T03:59:00.068Z,2.97
2018-04-17T04:01:27.735Z,3.37
2018-04-17T04:03:55.222Z,3.20
2018-04-17T04:06:22.708Z,3.83
2018-04-17T04:08:50.174Z,3.67
2018-04-17T04:11:17.688Z,3.22
2018-04-17T04:13:45.165Z,3.42
2018-04-17T04:16:18.366Z,3.10
2018-04-17T04:18:51.465Z,3.25
2018-04-17T04:21:24.626Z,3.65
2018-04-17T04:23:57.535Z,4.00
2018-04-17T04:26:30.498Z,3.95
2018-04-17T04:28:57.968Z,3.20
2018-04-17T04:31:25.211Z,3.47
2018-04-17T04:33:52.690Z,3.97
2018-04-17T04:36:20.006Z,3.50
2018-04-17T04:38:47.210Z,2.63
2018-04-17T04:41:14.441Z,3.70
2018-04-17T04:43:41.639Z,3.00
2018-04-17T04:46:08.827Z,2.67
2018-04-17T04:48:36.024Z,3.27
2018-04-17T04:51:02.990Z,3.13
2018-04-17T04:53:30.170Z,3.07
2018-04-17T04:55:57.367Z,2.70
2018-04-17T04:58:24.545Z,2.93
2018-04-17T05:00:51.533Z,2.80
2018-04-17T05:03:18.723Z,2.83
2018-04-17T05:05:45.910Z,2.70
2018-04-17T05:08:13.109Z,2.70
2018-04-17T05:10:40.290Z,2.67
2018-04-17T05:13:07.492Z,2.83
2018-04-17T05:15:34.869Z,2.63
2018-04-17T05:18:02.073Z,2.83
2018-04-17T05:20:29.273Z,3.00
2018-04-17T05:22:56.468Z,3.30
2018-04-17T05:25:23.660Z,3.07
2018-04-17T05:27:50.838Z,3.60
2018-04-17T05:30:18.044Z,3.47
2018-04-17T05:32:45.228Z,3.03
2018-04-17T05:35:12.428Z,2.90
2018-04-17T05:37:39.611Z,2.50
2018-04-17T05:40:06.850Z,2.43
2018-04-17T05:42:34.179Z,2.40
2018-04-17T05:45:01.398Z,2.73
2018-04-17T05:47:28.597Z,2.33
2018-04-17T05:49:55.794Z,2.97
2018-04-17T05:52:23.013Z,2.90
2018-04-17T05:54:50.194Z,7.93
2018-04-17T05:57:17.399Z,2.87
2018-04-17T05:59:44.568Z,3.20
2018-04-17T06:02:11.806Z,2.37
2018-04-17T06:04:39.009Z,2.60
2018-04-17T06:07:06.217Z,2.20
2018-04-17T06:09:33.402Z,2.67
2018-04-17T06:12:00.355Z,2.20
2018-04-17T06:14:27.573Z,3.00
2018-04-17T06:16:54.756Z,2.60
2018-04-17T06:19:21.974Z,4.67
2018-04-17T06:21:50.125Z,3.97
2018-04-17T06:24:17.317Z,2.50
2018-04-17T06:26:44.555Z,2.30
2018-04-17T06:29:11.735Z,2.57
2018-04-17T06:31:38.936Z,2.63
2018-04-17T06:34:06.123Z,2.80
2018-04-17T06:36:33.306Z,2.60
2018-04-17T06:39:00.558Z,2.43
2018-04-17T06:41:27.779Z,2.90
2018-04-17T06:43:54.990Z,2.23
2018-04-17T06:46:22.163Z,2.10
2018-04-17T06:48:49.378Z,2.10
2018-04-17T06:51:16.566Z,2.20
2018-04-17T06:53:43.884Z,2.10
2018-04-17T06:56:11.070Z,2.30
2018-04-17T06:58:38.392Z,2.43
2018-04-17T07:01:05.581Z,2.20
2018-04-17T07:03:32.774Z,2.40
2018-04-17T07:05:59.974Z,2.23
2018-04-17T07:08:27.201Z,8.23
2018-04-17T07:10:54.386Z,4.40
2018-04-17T07:13:21.581Z,2.20
2018-04-17T07:15:48.774Z,2.00
2018-04-17T07:18:15.957Z,3.33
2018-04-17T07:20:43.158Z,1.67
2018-04-17T07:23:10.371Z,1.70
2018-04-17T07:25:37.581Z,1.70
2018-04-17T07:28:04.790Z,1.80
2018-04-17T07:30:31.970Z,2.07
2018-04-17T07:32:59.149Z,2.20
2018-04-17T07:35:26.338Z,2.00
2018-04-17T07:37:53.533Z,1.97
2018-04-17T07:40:20.793Z,6.60
2018-04-17T07:42:48.174Z,5.30
2018-04-17T07:45:15.360Z,1.90
2018-04-17T07:47:48.198Z,2.13
2018-04-17T07:50:15.387Z,2.20
2018-04-17T07:52:42.574Z,2.20
2018-04-17T07:55:09.781Z,1.80
2018-04-17T07:57:36.979Z,6.40
2018-04-17T08:00:04.184Z,4.63
2018-04-17T08:02:31.405Z,2.00
2018-04-17T08:04:58.617Z,2.73
2018-04-17T08:07:25.819Z,2.57
2018-04-17T08:09:53.016Z,2.10
2018-04-17T08:12:20.208Z,1.97
2018-04-17T08:14:47.423Z,2.30
2018-04-17T08:17:14.622Z,3.40
2018-04-17T08:19:41.797Z,2.57
2018-04-17T08:22:09.026Z,2.97
2018-04-17T08:24:36.230Z,2.87
2018-04-17T08:27:03.413Z,2.60
2018-04-17T08:29:30.607Z,2.60
2018-04-17T08:31:57.783Z,2.60
2018-04-17T08:34:25.014Z,3.90
2018-04-17T08:36:52.280Z,2.50
2018-04-17T08:39:19.618Z,2.30
2018-04-17T08:41:46.817Z,2.97
2018-04-17T08:44:14.014Z,2.80
2018-04-17T08:46:41.212Z,2.57
2018-04-17T08:49:08.510Z,2.80
2018-04-17T08:51:35.698Z,2.77
2018-04-17T08:54:02.892Z,2.73
2018-04-17T08:56:30.092Z,2.60
2018-04-17T08:58:57.275Z,2.73
2018-04-17T09:01:24.557Z,3.23
2018-04-17T09:03:51.747Z,3.40
2018-04-17T09:06:18.956Z,3.60
2018-04-17T09:08:46.145Z,3.90
2018-04-17T09:11:13.354Z,3.53
2018-04-17T09:13:40.564Z,3.60
2018-04-17T09:16:07.751Z,3.03
2018-04-17T09:18:34.949Z,2.70
2018-04-17T09:21:02.130Z,2.80
2018-04-17T09:23:29.089Z,2.80
2018-04-17T09:25:56.296Z,2.50
2018-04-17T09:28:23.475Z,3.20
2018-04-17T09:30:51.539Z,3.57
2018-04-17T09:33:18.754Z,3.63
2018-04-17T09:35:45.933Z,2.83
2018-04-17T09:38:13.153Z,2.70
2018-04-17T09:40:40.353Z,3.30
2018-04-17T09:43:07.550Z,3.33
2018-04-17T09:45:34.747Z,2.90
2018-04-17T09:48:01.980Z,3.20
2018-04-17T09:50:29.165Z,3.20
2018-04-17T09:52:56.378Z,3.20
2018-04-17T09:55:23.762Z,3.17
2018-04-17T09:57:50.944Z,3.10
2018-04-17T10:00:17.913Z,2.37
2018-04-17T10:02:45.090Z,2.40
2018-04-17T10:05:12.293Z,3.27
2018-04-17T10:07:39.473Z,3.50
2018-04-17T10:10:06.665Z,2.73
2018-04-17T10:12:33.850Z,2.60
2018-04-17T10:15:01.047Z,2.33
2018-04-17T10:17:28.247Z,2.30
2018-04-17T10:19:55.639Z,3.30
2018-04-17T10:22:22.863Z,3.40
2018-04-17T10:24:50.030Z,2.93
2018-04-17T10:27:16.994Z,2.50
2018-04-17T10:29:44.191Z,2.13
2018-04-17T10:32:11.106Z,2.30
2018-04-17T10:34:38.389Z,2.63
2018-04-17T10:37:05.606Z,2.67
2018-04-17T10:39:32.778Z,2.43
2018-04-17T10:41:59.991Z,2.73
2018-04-17T10:44:27.185Z,3.40
2018-04-17T10:46:54.373Z,3.20
2018-04-17T10:49:21.573Z,3.40
2018-04-17T10:51:48.766Z,2.30
2018-04-17T10:54:15.974Z,2.10
2018-04-17T10:56:43.168Z,2.50
2018-04-17T10:59:10.357Z,2.43
2018-04-17T11:01:37.549Z,2.13
2018-04-17T11:04:04.532Z,2.47
2018-04-17T11:06:31.906Z,2.70
2018-04-17T11:08:59.126Z,3.37
2018-04-17T11:11:26.323Z,4.40
2018-04-17T11:13:53.497Z,4.70
2018-04-17T11:16:20.702Z,4.90
2018-04-17T11:18:48.082Z,3.23
2018-04-17T11:21:15.278Z,2.80
2018-04-17T11:23:42.469Z,2.93
2018-04-17T11:26:09.682Z,3.40
2018-04-17T11:28:36.897Z,3.30
2018-04-17T11:31:04.107Z,3.73
2018-04-17T11:33:31.074Z,3.40
2018-04-17T11:35:58.261Z,4.13
2018-04-17T11:38:25.459Z,3.47
2018-04-17T11:40:52.643Z,3.77
2018-04-17T11:43:19.852Z,3.97
2018-04-17T11:45:47.052Z,3.80
2018-04-17T11:48:14.433Z,3.60
2018-04-17T11:50:41.629Z,3.30
2018-04-17T11:53:08.830Z,3.40
2018-04-17T11:55:36.052Z,2.73
2018-04-17T11:58:03.257Z,2.10
2018-04-17T12:00:30.442Z,2.00
2018-04-17T12:02:57.642Z,2.00
2018-04-17T12:05:24.601Z,2.80
2018-04-17T12:07:51.546Z,1.80
2018-04-17T12:10:18.515Z,4.40
2018-04-17T12:12:45.495Z,3.37
2018-04-17T12:15:12.674Z,4.13
2018-04-17T12:17:39.636Z,5.50
2018-04-17T12:20:06.839Z,2.47
2018-04-17T12:22:34.029Z,3.23
2018-04-17T12:25:01.215Z,3.17
2018-04-17T12:27:28.406Z,2.70
2018-04-17T12:29:55.604Z,3.37
2018-04-17T12:32:22.796Z,3.00
2018-04-17T12:34:49.996Z,4.30
2018-04-17T12:37:17.190Z,3.50
2018-04-17T12:39:44.409Z,3.43
2018-04-17T12:42:11.598Z,3.40
2018-04-17T12:44:38.795Z,2.87
2018-04-17T12:47:06.009Z,3.30
2018-04-17T12:49:33.221Z,3.40
2018-04-17T12:52:00.449Z,4.10
2018-04-17T12:54:27.835Z,3.57
2018-04-17T12:56:55.850Z,3.27
2018-04-17T12:59:23.024Z,3.20
2018-04-17T13:01:50.232Z,3.60
2018-04-17T13:04:17.425Z,4.20
2018-04-17T13:06:44.628Z,3.40
2018-04-17T13:09:11.822Z,4.67
2018-04-17T13:11:39.696Z,5.10
2018-04-17T13:14:06.903Z,4.17
2018-04-17T13:16:34.101Z,3.87
2018-04-17T13:19:01.342Z,3.93
2018-04-17T13:21:28.518Z,3.77
2018-04-17T13:23:55.715Z,3.70
2018-04-17T13:26:22.930Z,4.40
2018-04-17T13:28:50.119Z,3.90
2018-04-17T13:31:17.332Z,4.00
2018-04-17T13:33:44.519Z,5.83
2018-04-17T13:36:11.720Z,4.67
2018-04-17T13:38:38.954Z,4.10
2018-04-17T13:41:06.162Z,4.03
2018-04-17T13:43:33.148Z,3.23
2018-04-17T13:46:00.349Z,3.70
2018-04-17T13:48:27.310Z,3.87
2018-04-17T13:50:54.501Z,3.37
2018-04-17T13:53:21.774Z,3.20
2018-04-17T13:55:48.959Z,3.30
2018-04-17T13:58:16.154Z,2.90
2018-04-17T14:00:43.358Z,4.60
2018-04-17T14:03:10.687Z,4.30
2018-04-17T14:05:37.878Z,3.70
2018-04-17T14:08:05.070Z,3.40
2018-04-17T14:10:32.290Z,3.30
2018-04-17T14:12:59.483Z,3.63
2018-04-17T14:15:26.676Z,3.83
2018-04-17T14:17:54.001Z,3.23
2018-04-17T14:20:21.200Z,2.70
2018-04-17T14:22:48.393Z,3.37
2018-04-17T14:25:15.698Z,4.63
2018-04-17T14:27:42.880Z,4.50
2018-04-17T14:30:10.067Z,3.73
2018-04-17T14:32:37.274Z,4.03
2018-04-17T14:35:04.479Z,3.80
2018-04-17T14:37:31.768Z,3.70
2018-04-17T14:39:59.096Z,3.03
2018-04-17T14:42:26.648Z,3.50
2018-04-17T14:44:53.851Z,3.30
2018-04-17T14:47:26.473Z,2.87
2018-04-17T14:49:53.696Z,3.27
2018-04-17T14:52:20.891Z,2.40
2018-04-17T14:54:48.121Z,2.33
2018-04-17T14:57:15.347Z,2.70
2018-04-17T14:59:42.556Z,2.70
2018-04-17T15:02:09.734Z,3.10
2018-04-17T15:04:36.922Z,3.30
2018-04-17T15:07:04.104Z,2.70
2018-04-17T15:09:31.331Z,2.37
2018-04-17T15:11:58.560Z,2.67
2018-04-17T15:14:25.788Z,2.70
2018-04-17T15:16:52.996Z,2.57
2018-04-17T15:19:20.687Z,3.23
2018-04-17T15:21:47.894Z,2.57
2018-04-17T15:24:15.098Z,2.30
2018-04-17T15:26:42.314Z,2.07
2018-04-17T15:29:09.511Z,1.77
2018-04-17T15:31:36.704Z,3.60
2018-04-17T15:34:03.903Z,2.30
2018-04-17T15:36:31.134Z,2.20
2018-04-17T15:38:58.361Z,3.27
2018-04-17T15:41:25.568Z,3.80
2018-04-17T15:43:52.819Z,4.57
2018-04-17T15:46:20.030Z,5.20
2018-04-17T15:48:47.275Z,6.00
2018-04-17T15:51:14.462Z,5.80
2018-04-17T15:53:41.729Z,5.50
2018-04-17T15:56:08.915Z,5.40
2018-04-17T15:58:36.113Z,5.47
2018-04-17T16:01:03.319Z,5.17
2018-04-17T16:03:30.544Z,4.73
2018-04-17T16:05:57.918Z,5.70
2018-04-17T16:08:25.113Z,4.40
2018-04-17T16:10:52.312Z,4.73
2018-04-17T16:13:19.511Z,4.67
2018-04-17T16:15:46.729Z,4.53
2018-04-17T16:18:14.171Z,5.90
2018-04-17T16:20:41.358Z,5.10
2018-04-17T16:23:08.575Z,4.80
2018-04-17T16:25:35.775Z,5.17
2018-04-17T16:28:02.990Z,4.83
2018-04-17T16:30:30.193Z,5.00
2018-04-17T16:32:57.388Z,5.30
2018-04-17T16:35:24.594Z,4.90
2018-04-17T16:37:51.788Z,4.23
2018-04-17T16:40:18.977Z,5.60
2018-04-17T16:42:46.198Z,4.73
2018-04-17T16:45:14.294Z,6.03
2018-04-17T16:47:41.486Z,6.30
2018-04-17T16:50:08.458Z,6.53
2018-04-17T16:52:35.671Z,5.90
2018-04-17T16:55:02.855Z,6.00
2018-04-17T16:57:30.057Z,5.17
2018-04-17T16:59:57.457Z,5.40
2018-04-17T17:02:24.674Z,5.70
2018-04-17T17:04:51.875Z,6.30
2018-04-17T17:07:19.073Z,5.60
2018-04-17T17:09:46.305Z,6.27
2018-04-17T17:12:13.617Z,6.13
2018-04-17T17:14:40.834Z,5.50
2018-04-17T17:17:07.789Z,5.90
2018-04-17T17:19:35.023Z,5.50
2018-04-17T17:22:02.233Z,5.83
2018-04-17T17:24:29.441Z,6.37
2018-04-17T17:26:56.616Z,6.30
2018-04-17T17:29:23.831Z,6.03
2018-04-17T17:31:51.379Z,6.70
2018-04-17T17:34:18.575Z,6.60
2018-04-17T17:36:45.802Z,6.47
2018-04-17T17:39:12.997Z,7.07
2018-04-17T17:41:40.171Z,7.00
2018-04-17T17:44:09.226Z,5.70
2018-04-17T17:46:36.190Z,6.37
2018-04-17T17:49:03.146Z,6.70
2018-04-17T17:51:30.136Z,6.50
2018-04-17T17:53:57.345Z,7.30
2018-04-17T17:56:24.547Z,7.03
2018-04-17T17:58:51.751Z,6.73
2018-04-17T18:01:18.959Z,6.23
2018-04-17T18:03:46.181Z,6.70
2018-04-17T18:06:13.363Z,6.40
2018-04-17T18:08:40.582Z,6.40
2018-04-17T18:11:08.055Z,6.37
2018-04-17T18:13:35.456Z,7.30
2018-04-17T18:16:02.660Z,6.10
2018-04-17T18:18:29.863Z,6.90
2018-04-17T18:20:57.087Z,6.30
2018-04-17T18:23:24.271Z,6.90
2018-04-17T18:25:51.478Z,6.57
2018-04-17T18:28:18.704Z,6.47
2018-04-17T18:30:45.894Z,6.63
2018-04-17T18:33:13.098Z,6.43
2018-04-17T18:35:40.304Z,6.63
2018-04-17T18:38:07.279Z,7.87
2018-04-17T18:40:35.366Z,6.97
2018-04-17T18:43:02.617Z,6.70
2018-04-17T18:45:29.824Z,6.77
2018-04-17T18:47:57.065Z,6.97
2018-04-17T18:50:24.332Z,6.77
2018-04-17T18:52:51.526Z,7.10
2018-04-17T18:55:18.742Z,7.67
2018-04-17T18:57:45.958Z,18.00
2018-04-17T19:00:13.197Z,9.60
2018-04-17T19:02:40.400Z,8.63
2018-04-17T19:05:07.590Z,6.70
2018-04-17T19:07:34.790Z,5.77
2018-04-17T19:10:02.049Z,4.17
2018-04-17T19:12:29.258Z,4.57
2018-04-17T19:14:56.479Z,4.67
2018-04-17T19:17:23.688Z,4.03
2018-04-17T19:19:50.892Z,4.57
2018-04-17T19:22:18.120Z,4.47
2018-04-17T19:24:45.347Z,3.60
2018-04-17T19:27:12.555Z,5.03
2018-04-17T19:29:39.786Z,5.00
2018-04-17T19:32:06.994Z,4.60
2018-04-17T19:34:34.230Z,4.33
2018-04-17T19:37:01.449Z,3.87
2018-04-17T19:39:28.678Z,3.30
2018-04-17T19:41:55.915Z,3.80
2018-04-17T19:44:23.169Z,3.97
2018-04-17T19:46:50.392Z,6.23
2018-04-17T19:49:17.712Z,8.33
2018-04-17T19:51:44.921Z,5.50
2018-04-17T19:54:12.126Z,4.37
2018-04-17T19:56:39.306Z,4.60
2018-04-17T19:59:06.500Z,4.27
2018-04-17T20:01:33.696Z,4.53
2018-04-17T20:04:00.906Z,5.10
2018-04-17T20:06:28.124Z,5.20
2018-04-17T20:08:55.333Z,4.60
2018-04-17T20:11:22.575Z,4.80
2018-04-17T20:13:50.076Z,3.20
2018-04-17T20:16:17.881Z,3.80
2018-04-17T20:18:45.086Z,3.83
2018-04-17T20:21:12.284Z,3.90
2018-04-17T20:23:39.551Z,4.70
2018-04-17T20:26:06.763Z,4.13
2018-04-17T20:28:33.991Z,4.60
2018-04-17T20:31:01.220Z,4.13
2018-04-17T20:33:28.425Z,4.13
2018-04-17T20:35:55.601Z,4.40
2018-04-17T20:38:22.811Z,3.63
2018-04-17T20:40:50.012Z,2.80
2018-04-17T20:43:17.008Z,2.83
2018-04-17T20:45:44.250Z,3.27
2018-04-17T20:48:11.455Z,4.30
2018-04-17T20:50:38.448Z,3.53
2018-04-17T20:53:05.468Z,3.47
2018-04-17T20:55:32.590Z,4.03
2018-04-17T20:57:59.808Z,3.50
2018-04-17T21:00:26.782Z,3.50
2018-04-17T21:02:53.972Z,3.70
2018-04-17T21:05:21.195Z,3.10
2018-04-17T21:07:48.187Z,4.40
2018-04-17T21:10:15.138Z,3.80
2018-04-17T21:12:42.154Z,3.43
2018-04-17T21:15:09.364Z,3.37
2018-04-17T21:17:36.551Z,3.50
2018-04-17T21:20:03.757Z,4.20
2018-04-17T21:22:30.955Z,3.63
2018-04-17T21:24:58.150Z,3.70
2018-04-17T21:27:25.347Z,3.90
2018-04-17T21:29:52.623Z,3.20
2018-04-17T21:32:19.799Z,3.63
2018-04-17T21:34:47.012Z,3.63
2018-04-17T21:37:14.215Z,4.03
2018-04-17T21:39:41.175Z,3.93
2018-04-17T21:42:08.471Z,2.97
2018-04-17T21:44:35.661Z,3.37
2018-04-17T21:47:02.878Z,3.07
2018-04-17T21:49:30.096Z,3.70
2018-04-17T21:51:57.297Z,3.40
2018-04-17T21:54:24.492Z,3.40
2018-04-17T21:56:51.688Z,3.13
2018-04-17T21:59:18.654Z,3.10
2018-04-17T22:01:45.841Z,3.30
2018-04-17T22:04:12.810Z,3.20
2018-04-17T22:06:40.003Z,3.20
2018-04-17T22:09:07.598Z,3.08
2018-04-17T22:11:34.609Z,2.90
2018-04-17T22:14:02.073Z,3.25
2018-04-17T22:16:29.586Z,2.90
2018-04-17T22:18:57.066Z,2.85
2018-04-17T22:21:24.311Z,3.35
2018-04-17T22:23:51.559Z,3.65
2018-04-17T22:26:19.044Z,3.28
2018-04-17T22:28:46.229Z,3.20
2018-04-17T22:31:13.715Z,2.62
2018-04-17T22:33:40.902Z,3.60
2018-04-17T22:36:08.393Z,3.10
2018-04-17T22:38:35.862Z,3.47
2018-04-17T22:41:03.105Z,3.67
2018-04-17T22:43:30.371Z,4.00
2018-04-17T22:45:57.366Z,3.23
2018-04-17T22:48:24.611Z,3.47
2018-04-17T22:50:51.559Z,3.53
2018-04-17T22:53:18.538Z,4.00
2018-04-17T22:55:45.779Z,2.95
2018-04-17T22:58:12.749Z,3.63
2018-04-17T23:00:39.944Z,3.50
2018-04-17T23:03:07.156Z,4.40
2018-04-17T23:05:34.652Z,3.75
2018-04-17T23:08:01.952Z,3.10
2018-04-17T23:10:29.163Z,3.40
2018-04-17T23:12:56.385Z,3.63
2018-04-17T23:15:23.578Z,3.20
2018-04-17T23:17:50.852Z,3.67
2018-04-17T23:20:18.055Z,3.40
2018-04-17T23:22:45.518Z,3.50
2018-04-17T23:25:12.736Z,3.10
2018-04-17T23:27:40.010Z,3.20
2018-04-17T23:30:07.226Z,3.73
2018-04-17T23:32:34.425Z,3.23
2018-04-17T23:35:01.907Z,3.62
2018-04-17T23:37:29.577Z,3.50
2018-04-17T23:39:56.773Z,3.83
2018-04-17T23:42:24.270Z,3.47
2018-04-17T23:44:51.745Z,3.20
2018-04-17T23:47:18.958Z,3.23
2018-04-17T23:49:46.461Z,3.30
2018-04-17T23:52:13.726Z,3.70
2018-04-17T23:54:41.205Z,3.60
2018-04-17T23:57:08.386Z,3.33
2018-04-17T23:59:35.876Z,3.40
